Time;durP1;ratioP1;P1;durP2;ratioP2;P2;SDS_P1;SDS_P2;PMS_P1;PMS_P2;Temp;Humidity;BMP_temperature;BMP_pressure;BME280_temperature;BME280_humidity;BME280_pressure;Samples;Min_cycle;Max_cycle;Signal;HPM_P1;HPM_P2
2021/03/18 00:01:17;;;;;;;0.00;0.00;;;2.30;99.90;;;;;;6153215;23;20460;-69
2021/03/18 00:03:44;;;;;;;0.00;0.00;;;2.20;99.90;;;;;;6153000;23;20375;-69
2021/03/18 00:06:11;;;;;;;0.00;0.00;;;2.20;99.90;;;;;;6153803;23;20371;-67
2021/03/18 00:08:38;;;;;;;0.00;0.00;;;2.20;99.90;;;;;;6153902;23;20382;-68
2021/03/18 00:11:06;;;;;;;0.00;0.00;;;2.20;99.90;;;;;;6153096;23;20849;-68
2021/03/18 00:13:33;;;;;;;0.00;0.00;;;2.10;99.90;;;;;;6152990;23;20383;-68
2021/03/18 00:16:00;;;;;;;0.00;0.00;;;2.10;99.90;;;;;;6153513;23;20395;-67
2021/03/18 00:18:30;;;;;;;0.00;0.00;;;2.10;99.90;;;;;;6153860;23;20378;-68
2021/03/18 00:20:57;;;;;;;0.00;0.00;;;2.00;99.90;;;;;;6153722;23;20387;-68
2021/03/18 00:23:23;;;;;;;0.00;0.00;;;2.00;99.90;;;;;;6153573;23;20457;-67
2021/03/18 00:25:49;;;;;;;0.00;0.00;;;2.00;99.90;;;;;;6153553;23;20410;-68
2021/03/18 00:28:15;;;;;;;0.00;0.00;;;1.90;99.90;;;;;;6153738;23;20379;-68
2021/03/18 00:30:41;;;;;;;0.00;0.00;;;1.90;99.90;;;;;;6154286;23;20375;-67
2021/03/18 00:33:09;;;;;;;0.00;0.00;;;1.80;99.90;;;;;;6153010;23;20379;-68
2021/03/18 00:35:35;;;;;;;0.00;0.00;;;1.80;99.90;;;;;;6153705;23;20758;-68
2021/03/18 00:38:01;;;;;;;0.00;0.00;;;1.70;99.90;;;;;;6153638;23;20446;-68
2021/03/18 00:40:30;;;;;;;0.00;0.00;;;1.70;99.90;;;;;;6153511;23;20471;-68
2021/03/18 00:42:59;;;;;;;0.00;0.00;;;1.70;99.90;;;;;;6153530;23;20375;-68
2021/03/18 00:45:27;;;;;;;0.00;0.00;;;1.70;99.90;;;;;;6152992;23;20379;-67
2021/03/18 00:47:54;;;;;;;0.00;0.00;;;1.70;99.90;;;;;;6153353;23;20393;-68
2021/03/18 00:50:28;;;;;;;0.00;0.00;;;1.70;99.90;;;;;;6152945;23;20383;-67
2021/03/18 00:52:54;;;;;;;0.00;0.00;;;1.70;99.90;;;;;;6152871;23;20388;-68
2021/03/18 00:55:20;;;;;;;0.00;0.00;;;1.60;99.90;;;;;;6153284;23;20391;-69
2021/03/18 00:57:47;;;;;;;0.00;0.00;;;1.60;99.90;;;;;;6153637;23;20438;-69
2021/03/18 01:00:19;;;;;;;0.00;0.00;;;1.70;99.90;;;;;;6153544;23;20383;-68
2021/03/18 01:02:46;;;;;;;0.00;0.00;;;1.70;99.90;;;;;;6152985;23;20379;-68
2021/03/18 01:05:15;;;;;;;0.00;0.00;;;1.70;99.90;;;;;;6153389;23;20370;-67
2021/03/18 01:07:43;;;;;;;0.00;0.00;;;1.80;99.90;;;;;;6153289;23;20695;-67
2021/03/18 01:10:11;;;;;;;0.00;0.00;;;1.80;99.90;;;;;;6153173;23;20810;-69
2021/03/18 01:12:37;;;;;;;0.00;0.00;;;1.70;99.90;;;;;;6152654;23;20386;-68
2021/03/18 01:15:05;;;;;;;0.00;0.00;;;1.70;99.90;;;;;;6153403;23;20398;-68
2021/03/18 01:17:31;;;;;;;0.00;0.00;;;1.60;99.90;;;;;;6152726;23;20382;-68
2021/03/18 01:19:57;;;;;;;0.00;0.00;;;1.50;99.90;;;;;;6153158;23;20746;-68
2021/03/18 01:22:24;;;;;;;0.00;0.00;;;1.50;99.90;;;;;;6152952;23;20379;-68
2021/03/18 01:24:54;;;;;;;0.00;0.00;;;1.50;99.90;;;;;;6153229;23;20374;-68
2021/03/18 01:27:20;;;;;;;0.00;0.00;;;1.60;99.90;;;;;;6153836;23;20760;-67
2021/03/18 01:29:46;;;;;;;0.00;0.00;;;1.60;99.90;;;;;;6153249;23;20382;-68
2021/03/18 01:32:12;;;;;;;0.00;0.00;;;1.60;99.90;;;;;;6152994;23;20854;-68
2021/03/18 01:34:38;;;;;;;0.00;0.00;;;1.60;99.90;;;;;;6153109;23;20695;-68
2021/03/18 01:37:05;;;;;;;0.00;0.00;;;1.50;99.90;;;;;;6153437;23;20378;-67
2021/03/18 01:39:31;;;;;;;0.00;0.00;;;1.50;99.90;;;;;;6153104;23;20403;-68
2021/03/18 01:41:58;;;;;;;0.00;0.00;;;1.40;99.90;;;;;;6152956;23;20378;-67
2021/03/18 01:44:24;;;;;;;0.00;0.00;;;1.40;99.90;;;;;;6152991;23;20861;-68
2021/03/18 01:46:50;;;;;;;0.00;0.00;;;1.40;99.90;;;;;;6153210;23;20382;-68
2021/03/18 01:49:17;;;;;;;0.00;0.00;;;1.30;99.90;;;;;;6153014;23;20390;-67
2021/03/18 01:51:43;;;;;;;0.00;0.00;;;1.20;99.90;;;;;;6153218;23;20450;-68
2021/03/18 01:54:11;;;;;;;0.00;0.00;;;1.30;99.90;;;;;;6153059;23;20441;-67
2021/03/18 01:56:37;;;;;;;0.00;0.00;;;1.30;99.90;;;;;;6153362;23;20463;-67
2021/03/18 01:59:04;;;;;;;0.00;0.00;;;1.30;99.90;;;;;;6153317;23;20378;-67
2021/03/18 02:01:30;;;;;;;0.00;0.00;;;1.30;99.90;;;;;;6153511;23;20383;-69
2021/03/18 02:03:57;;;;;;;0.00;0.00;;;1.30;99.90;;;;;;6154132;23;20378;-67
2021/03/18 02:06:23;;;;;;;0.00;0.00;;;1.30;99.90;;;;;;6155126;23;20371;-68
2021/03/18 02:08:49;;;;;;;0.00;0.00;;;1.30;99.90;;;;;;6154961;23;20698;-68
2021/03/18 02:11:15;;;;;;;0.00;0.00;;;1.40;99.90;;;;;;6154911;23;20378;-68
2021/03/18 02:13:42;;;;;;;0.00;0.00;;;1.40;99.90;;;;;;6154152;23;20754;-67
2021/03/18 02:16:11;;;;;;;0.00;0.00;;;1.20;99.90;;;;;;6154875;23;20398;-68
2021/03/18 02:18:53;;;;;;;0.00;0.00;;;1.10;99.90;;;;;;6154953;23;20375;-68
2021/03/18 02:22:13;;;;;;;0.00;0.00;;;1.10;99.90;;;;;;6154673;23;20425;-67
2021/03/18 02:24:53;;;;;;;0.00;0.00;;;1.20;99.90;;;;;;6154556;23;20391;-68
2021/03/18 02:27:48;;;;;;;0.00;0.00;;;1.20;99.90;;;;;;6155131;23;20749;-68
2021/03/18 02:30:48;;;;;;;0.00;0.00;;;1.20;99.90;;;;;;6154482;23;20371;-67
2021/03/18 02:34:00;;;;;;;0.00;0.00;;;1.20;99.90;;;;;;6154639;23;20379;-68
2021/03/18 02:36:43;;;;;;;0.00;0.00;;;1.20;99.90;;;;;;6155285;23;20394;-68
2021/03/18 02:39:14;;;;;;;0.00;0.00;;;1.10;99.90;;;;;;6156284;23;20379;-68
2021/03/18 02:41:45;;;;;;;0.00;0.00;;;1.10;99.90;;;;;;6155267;23;20378;-68
2021/03/18 02:44:16;;;;;;;0.00;0.00;;;1.10;99.90;;;;;;6154779;23;20383;-67
2021/03/18 02:46:43;;;;;;;0.00;0.00;;;1.10;99.90;;;;;;6154653;23;20378;-68
2021/03/18 02:49:11;;;;;;;0.00;0.00;;;1.10;99.90;;;;;;6154530;23;20378;-67
2021/03/18 02:51:42;;;;;;;0.00;0.00;;;1.10;99.90;;;;;;6154696;23;20382;-68
2021/03/18 02:54:10;;;;;;;0.00;0.00;;;1.10;99.90;;;;;;6154812;23;20385;-67
2021/03/18 02:56:42;;;;;;;0.00;0.00;;;1.10;99.90;;;;;;6154767;23;20391;-68
2021/03/18 02:59:11;;;;;;;0.00;0.00;;;1.10;99.90;;;;;;6154322;23;20842;-67
2021/03/18 03:01:40;;;;;;;0.00;0.00;;;1.10;99.90;;;;;;6154587;23;20402;-69
2021/03/18 03:04:08;;;;;;;0.00;0.00;;;1.10;99.90;;;;;;6153924;23;20448;-67
2021/03/18 03:06:35;;;;;;;0.00;0.00;;;1.00;99.90;;;;;;6154866;23;20750;-67
2021/03/18 03:09:05;;;;;;;0.00;0.00;;;0.90;99.90;;;;;;6155418;23;20878;-66
2021/03/18 03:11:33;;;;;;;0.00;0.00;;;0.90;99.90;;;;;;6154940;23;20387;-67
2021/03/18 03:14:02;;;;;;;0.00;0.00;;;0.90;99.90;;;;;;6154015;23;20402;-66
2021/03/18 03:16:29;;;;;;;0.00;0.00;;;0.90;99.90;;;;;;6156051;23;20386;-68
2021/03/18 03:18:57;;;;;;;0.00;0.00;;;0.70;99.90;;;;;;6154669;23;20383;-66
2021/03/18 03:21:24;;;;;;;0.00;0.00;;;0.60;99.90;;;;;;6154604;23;20379;-66
2021/03/18 03:23:51;;;;;;;0.00;0.00;;;0.50;99.90;;;;;;6154688;23;20375;-66
2021/03/18 03:26:20;;;;;;;0.00;0.00;;;0.60;99.90;;;;;;6154556;23;20371;-66
2021/03/18 03:28:48;;;;;;;0.00;0.00;;;0.60;99.90;;;;;;6154341;23;20379;-67
2021/03/18 03:31:15;;;;;;;0.00;0.00;;;0.60;99.90;;;;;;6154216;23;20437;-67
2021/03/18 03:33:41;;;;;;;0.00;0.00;;;0.70;99.90;;;;;;6153859;23;20382;-67
2021/03/18 03:36:08;;;;;;;0.00;0.00;;;0.70;99.90;;;;;;6154302;23;20478;-67
2021/03/18 03:38:34;;;;;;;0.00;0.00;;;0.70;99.90;;;;;;6154307;23;20383;-66
2021/03/18 03:41:01;;;;;;;0.00;0.00;;;0.70;99.90;;;;;;6154047;23;20414;-66
2021/03/18 03:43:28;;;;;;;0.00;0.00;;;0.70;99.90;;;;;;6153774;23;20433;-67
2021/03/18 03:45:55;;;;;;;0.00;0.00;;;0.70;99.90;;;;;;6154135;23;20433;-66
2021/03/18 03:48:23;;;;;;;0.00;0.00;;;0.80;99.90;;;;;;6154107;23;20445;-67
2021/03/18 03:50:51;;;;;;;0.00;0.00;;;0.70;99.90;;;;;;6153876;23;20383;-66
2021/03/18 03:53:22;;;;;;;0.00;0.00;;;0.70;99.90;;;;;;6153796;23;20375;-67
2021/03/18 03:55:55;;;;;;;0.00;0.00;;;0.70;99.90;;;;;;6153798;23;20398;-66
2021/03/18 03:58:34;;;;;;;0.00;0.00;;;0.70;99.90;;;;;;6153865;23;20683;-67
2021/03/18 04:01:03;;;;;;;0.00;0.00;;;0.80;99.90;;;;;;6153701;23;20588;-66
2021/03/18 04:03:31;;;;;;;0.00;0.00;;;0.80;99.90;;;;;;6153584;23;20383;-66
2021/03/18 04:05:59;;;;;;;0.00;0.00;;;0.80;99.90;;;;;;6153429;23;20371;-66
2021/03/18 04:08:28;;;;;;;0.00;0.00;;;0.80;99.90;;;;;;6153998;23;20792;-66
2021/03/18 04:10:56;;;;;;;0.00;0.00;;;0.80;99.90;;;;;;6154145;23;20382;-67
2021/03/18 04:13:24;;;;;;;0.00;0.00;;;0.70;99.90;;;;;;6153353;23;20703;-66
2021/03/18 04:15:52;;;;;;;0.00;0.00;;;0.60;99.90;;;;;;6153770;23;20414;-67
2021/03/18 04:18:20;;;;;;;0.00;0.00;;;0.70;99.90;;;;;;6153682;23;20755;-65
2021/03/18 04:20:47;;;;;;;0.00;0.00;;;0.70;99.90;;;;;;6153746;23;20390;-67
2021/03/18 04:23:15;;;;;;;0.00;0.00;;;0.60;99.90;;;;;;6153204;23;20375;-67
2021/03/18 04:25:43;;;;;;;0.00;0.00;;;0.60;99.90;;;;;;6153461;23;20414;-67
2021/03/18 04:28:10;;;;;;;0.00;0.00;;;0.70;99.90;;;;;;6153172;23;20461;-66
2021/03/18 04:30:38;;;;;;;0.00;0.00;;;0.80;99.90;;;;;;6153623;23;20406;-66
2021/03/18 04:33:07;;;;;;;0.00;0.00;;;0.80;99.90;;;;;;6153098;23;20371;-66
2021/03/18 04:35:33;;;;;;;0.00;0.00;;;0.80;99.90;;;;;;6153013;23;20935;-66
2021/03/18 04:38:01;;;;;;;0.00;0.00;;;0.90;99.90;;;;;;6153359;23;20430;-66
2021/03/18 04:40:28;;;;;;;0.00;0.00;;;0.90;99.90;;;;;;6153347;23;20386;-66
2021/03/18 04:42:56;;;;;;;0.00;0.00;;;0.80;99.90;;;;;;6153346;23;20734;-68
2021/03/18 04:45:25;;;;;;;0.00;0.00;;;0.80;99.90;;;;;;6153346;23;20385;-66
2021/03/18 04:47:52;;;;;;;0.00;0.00;;;0.80;99.90;;;;;;6153491;23;20382;-67
2021/03/18 04:50:22;;;;;;;0.00;0.00;;;0.80;99.90;;;;;;6153307;23;20905;-66
2021/03/18 04:52:49;;;;;;;0.00;0.00;;;0.80;99.90;;;;;;6153508;23;20374;-69
2021/03/18 04:55:18;;;;;;;0.00;0.00;;;0.80;99.90;;;;;;6153417;23;20454;-65
2021/03/18 04:57:48;;;;;;;0.00;0.00;;;0.90;99.90;;;;;;6149683;23;20379;-67
2021/03/18 05:00:17;;;;;;;0.00;0.00;;;0.90;99.90;;;;;;6152761;23;20379;-66
2021/03/18 05:02:44;;;;;;;0.00;0.00;;;0.80;99.90;;;;;;6175448;23;20390;-66
2021/03/18 05:05:13;;;;;;;0.00;0.00;;;0.80;99.90;;;;;;6153202;23;20375;-66
2021/03/18 05:07:42;;;;;;;0.00;0.00;;;0.90;99.90;;;;;;6152790;23;20433;-67
2021/03/18 05:10:10;;;;;;;0.00;0.00;;;1.00;99.90;;;;;;6153258;23;20382;-66
2021/03/18 05:12:37;;;;;;;0.00;0.00;;;1.00;99.90;;;;;;6153223;23;20410;-67
2021/03/18 05:15:05;;;;;;;0.00;0.00;;;1.10;99.90;;;;;;6153409;23;20466;-66
2021/03/18 05:17:33;;;;;;;0.00;0.00;;;1.10;99.90;;;;;;6152721;23;20383;-66
2021/03/18 05:19:59;;;;;;;0.00;0.00;;;1.10;99.90;;;;;;6152928;23;20379;-67
2021/03/18 05:22:26;;;;;;;0.00;0.00;;;1.20;99.90;;;;;;6152764;23;20379;-67
2021/03/18 05:24:53;;;;;;;0.00;0.00;;;1.30;99.90;;;;;;6153145;23;20386;-66
2021/03/18 05:27:19;;;;;;;0.00;0.00;;;1.30;99.90;;;;;;6153183;23;20435;-66
2021/03/18 05:29:46;;;;;;;0.00;0.00;;;1.30;99.90;;;;;;6152769;23;20383;-67
2021/03/18 05:32:12;;;;;;;0.00;0.00;;;1.30;99.90;;;;;;6152949;23;20421;-66
2021/03/18 05:34:38;;;;;;;0.00;0.00;;;1.40;99.90;;;;;;6152682;23;20680;-66
2021/03/18 05:37:04;;;;;;;0.00;0.00;;;1.40;99.90;;;;;;6152770;23;20391;-67
2021/03/18 05:39:30;;;;;;;0.00;0.00;;;1.50;99.90;;;;;;6154558;23;20853;-67
2021/03/18 05:41:58;;;;;;;0.00;0.00;;;1.50;99.90;;;;;;6154592;23;20400;-67
2021/03/18 05:44:24;;;;;;;0.00;0.00;;;1.50;99.90;;;;;;6154522;23;20410;-67
2021/03/18 05:46:51;;;;;;;0.00;0.00;;;1.40;99.90;;;;;;6154096;23;20382;-67
2021/03/18 05:49:18;;;;;;;0.00;0.00;;;1.40;99.90;;;;;;6154868;23;20457;-67
2021/03/18 05:51:50;;;;;;;0.00;0.00;;;1.50;99.90;;;;;;6154539;23;20390;-67
2021/03/18 05:54:20;;;;;;;0.00;0.00;;;1.50;99.90;;;;;;6154303;23;20379;-66
2021/03/18 05:56:48;;;;;;;0.00;0.00;;;1.50;99.90;;;;;;6154515;23;20386;-66
2021/03/18 05:59:16;;;;;;;0.00;0.00;;;1.60;99.90;;;;;;6154519;23;20402;-67
2021/03/18 06:01:43;;;;;;;0.00;0.00;;;1.90;99.90;;;;;;6152513;23;20386;-67
2021/03/18 06:04:09;;;;;;;0.00;0.00;;;1.80;99.90;;;;;;6152040;23;20379;-68
2021/03/18 06:06:37;;;;;;;0.00;0.00;;;1.80;99.90;;;;;;6154231;23;20437;-63
2021/03/18 06:09:06;;;;;;;0.00;0.00;;;1.70;99.90;;;;;;6153948;23;20400;-64
2021/03/18 06:11:32;;;;;;;0.00;0.00;;;1.70;99.90;;;;;;6154005;23;20398;-65
2021/03/18 06:13:58;;;;;;;0.00;0.00;;;1.50;99.90;;;;;;6153029;23;20383;-65
2021/03/18 06:16:28;;;;;;;0.00;0.00;;;1.50;99.90;;;;;;6153079;23;21282;-65
2021/03/18 06:18:54;;;;;;;0.00;0.00;;;1.50;99.90;;;;;;6153949;23;20430;-64
2021/03/18 06:21:41;;;;;;;0.00;0.00;;;1.50;99.90;;;;;;6153315;23;20928;-65
2021/03/18 06:24:09;;;;;;;0.00;0.00;;;1.40;99.90;;;;;;6152962;23;20378;-64
2021/03/18 06:26:36;;;;;;;0.00;0.00;;;1.50;99.90;;;;;;6153926;23;20393;-65
2021/03/18 06:29:02;;;;;;;0.00;0.00;;;1.50;99.90;;;;;;6153526;23;20903;-65
2021/03/18 06:31:30;;;;;;;0.00;0.00;;;1.60;99.90;;;;;;6154070;23;20433;-64
2021/03/18 06:33:56;;;;;;;0.00;0.00;;;1.70;99.90;;;;;;6152812;23;20379;-64
2021/03/18 06:36:24;;;;;;;0.00;0.00;;;1.80;99.90;;;;;;6154301;23;20476;-67
2021/03/18 06:39:02;;;;;;;0.00;0.00;;;1.80;99.90;;;;;;6153724;23;20438;-68
2021/03/18 06:41:36;;;;;;;0.00;0.00;;;2.00;99.90;;;;;;6153932;23;21044;-68
2021/03/18 06:44:03;;;;;;;0.00;0.00;;;2.00;99.90;;;;;;6153009;23;20379;-66
2021/03/18 06:46:30;;;;;;;0.00;0.00;;;2.20;99.90;;;;;;6153521;23;20850;-67
2021/03/18 06:48:57;;;;;;;0.00;0.00;;;2.30;99.90;;;;;;6153698;23;20382;-68
2021/03/18 06:51:25;;;;;;;0.00;0.00;;;2.40;99.90;;;;;;6152995;23;20391;-68
2021/03/18 06:53:52;;;;;;;0.00;0.00;;;2.50;99.90;;;;;;6151923;23;20390;-67
2021/03/18 06:56:21;;;;;;;0.00;0.00;;;2.50;99.90;;;;;;6153452;23;20391;-67
2021/03/18 06:58:48;;;;;;;0.00;0.00;;;2.60;99.90;;;;;;6153698;23;20469;-69
2021/03/18 07:01:14;;;;;;;0.00;0.00;;;2.60;99.90;;;;;;6153850;23;20394;-68
2021/03/18 07:03:41;;;;;;;0.00;0.00;;;2.70;99.90;;;;;;6153124;23;20746;-68
2021/03/18 07:06:09;;;;;;;0.00;0.00;;;2.80;99.90;;;;;;6154385;23;20382;-69
2021/03/18 07:08:37;;;;;;;0.00;0.00;;;2.80;99.90;;;;;;6153626;23;20379;-68
2021/03/18 07:11:17;;;;;;;0.00;0.00;;;2.90;99.90;;;;;;6153676;23;20379;-68
2021/03/18 07:13:45;;;;;;;0.00;0.00;;;2.90;99.90;;;;;;6153571;23;20386;-70
2021/03/18 07:16:13;;;;;;;0.00;0.00;;;3.00;99.90;;;;;;6153769;23;20408;-71
2021/03/18 07:18:40;;;;;;;0.00;0.00;;;3.00;99.90;;;;;;6153629;23;20411;-62
2021/03/18 07:21:10;;;;;;;0.00;0.00;;;3.20;99.90;;;;;;6153797;23;20446;-64
2021/03/18 07:23:41;;;;;;;0.00;0.00;;;3.40;99.90;;;;;;6153960;23;20385;-63
2021/03/18 07:26:14;;;;;;;0.00;0.00;;;3.40;99.90;;;;;;6154278;23;20378;-62
2021/03/18 07:28:41;;;;;;;0.00;0.00;;;3.50;99.90;;;;;;6154199;23;20375;-65
2021/03/18 07:31:07;;;;;;;0.00;0.00;;;3.70;99.90;;;;;;6154491;23;20706;-62
2021/03/18 07:33:35;;;;;;;0.00;0.00;;;3.90;99.90;;;;;;6153634;23;20375;-65
2021/03/18 07:36:02;;;;;;;0.00;0.00;;;4.00;99.90;;;;;;6153896;23;20414;-68
2021/03/18 07:38:29;;;;;;;0.00;0.00;;;3.80;99.90;;;;;;6154644;23;20383;-67
2021/03/18 07:40:56;;;;;;;0.00;0.00;;;3.70;99.90;;;;;;6153570;23;20387;-65
2021/03/18 07:43:22;;;;;;;0.00;0.00;;;3.90;99.90;;;;;;6152994;23;20379;-65
2021/03/18 07:45:49;;;;;;;0.00;0.00;;;4.10;99.90;;;;;;6153712;23;20710;-66
2021/03/18 07:48:20;;;;;;;0.00;0.00;;;4.40;99.90;;;;;;6153559;23;20386;-65
2021/03/18 07:50:47;;;;;;;0.00;0.00;;;4.60;99.90;;;;;;6153387;23;20435;-66
2021/03/18 07:53:17;;;;;;;0.00;0.00;;;4.80;99.90;;;;;;6152711;23;20383;-68
2021/03/18 07:55:44;;;;;;;0.00;0.00;;;5.00;99.90;;;;;;6153158;23;20400;-68
2021/03/18 07:58:10;;;;;;;0.00;0.00;;;5.10;99.90;;;;;;6153495;23;20382;-67
2021/03/18 08:00:41;;;;;;;0.00;0.00;;;4.90;99.90;;;;;;6152865;23;20449;-67
2021/03/18 08:03:29;;;;;;;0.00;0.00;;;4.90;99.90;;;;;;6152939;23;20379;-67
2021/03/18 08:05:57;;;;;;;0.00;0.00;;;4.70;99.90;;;;;;6153410;23;20393;-67
2021/03/18 08:08:41;;;;;;;0.00;0.00;;;4.60;99.90;;;;;;6152308;23;20383;-68
2021/03/18 08:11:13;;;;;;;0.00;0.00;;;4.30;99.90;;;;;;6153346;23;20425;-64
2021/03/18 08:13:41;;;;;;;0.00;0.00;;;4.20;99.90;;;;;;6152554;23;20465;-65
2021/03/18 08:16:21;;;;;;;0.00;0.00;;;4.30;99.90;;;;;;6152965;23;20390;-65
2021/03/18 08:18:52;;;;;;;0.00;0.00;;;4.60;99.90;;;;;;6153073;23;20395;-64
2021/03/18 08:21:18;;;;;;;0.00;0.00;;;4.70;99.90;;;;;;6153058;23;20681;-65
2021/03/18 08:23:50;;;;;;;0.00;0.00;;;4.70;99.90;;;;;;6152866;23;20402;-66
2021/03/18 08:26:36;;;;;;;0.00;0.00;;;4.90;99.90;;;;;;6152619;23;20851;-67
2021/03/18 08:29:04;;;;;;;0.00;0.00;;;5.10;99.90;;;;;;6153103;23;20428;-66
2021/03/18 08:31:58;;;;;;;0.00;0.00;;;5.30;99.90;;;;;;6152573;23;20592;-68
2021/03/18 08:34:44;;;;;;;0.00;0.00;;;5.40;99.90;;;;;;6150871;23;20392;-65
2021/03/18 08:37:11;;;;;;;0.00;0.00;;;5.20;99.90;;;;;;6152806;23;20399;-68
2021/03/18 08:39:41;;;;;;;0.00;0.00;;;5.00;99.90;;;;;;6152634;23;20414;-70
2021/03/18 08:42:39;;;;;;;0.00;0.00;;;4.90;99.90;;;;;;6153826;23;20379;-71
2021/03/18 08:45:26;;;;;;;0.00;0.00;;;5.30;99.90;;;;;;6152504;23;20391;-71
2021/03/18 08:47:55;;;;;;;0.00;0.00;;;5.50;99.90;;;;;;6142668;23;20404;-70
2021/03/18 08:50:53;;;;;;;0.00;0.00;;;5.90;99.90;;;;;;6152762;23;21056;-70
2021/03/18 08:53:44;;;;;;;0.00;0.00;;;6.40;99.90;;;;;;6152369;23;20451;-68
2021/03/18 08:56:11;;;;;;;0.00;0.00;;;6.40;99.90;;;;;;6137407;23;20760;-68
2021/03/18 08:58:48;;;;;;;0.00;0.00;;;6.30;99.90;;;;;;6152671;23;20388;-67
2021/03/18 09:01:16;;;;;;;0.00;0.00;;;6.00;99.90;;;;;;6152258;23;20423;-69
2021/03/18 09:03:43;;;;;;;0.00;0.00;;;5.80;99.90;;;;;;6152471;23;20387;-66
2021/03/18 09:06:09;;;;;;;0.00;0.00;;;5.70;99.90;;;;;;6152562;23;20371;-66
2021/03/18 09:08:36;;;;;;;0.00;0.00;;;5.60;99.90;;;;;;6152463;23;20457;-69
2021/03/18 09:11:02;;;;;;;0.00;0.00;;;5.70;99.90;;;;;;6151932;23;20386;-69
2021/03/18 09:13:29;;;;;;;0.00;0.00;;;5.60;99.90;;;;;;6151202;23;20469;-68
2021/03/18 09:15:57;;;;;;;0.00;0.00;;;5.70;99.90;;;;;;6152929;23;20399;-70
2021/03/18 09:18:25;;;;;;;0.00;0.00;;;5.50;99.90;;;;;;6151988;23;20462;-67
2021/03/18 09:20:59;;;;;;;0.00;0.00;;;5.70;99.90;;;;;;6152892;23;20383;-68
2021/03/18 09:23:27;;;;;;;0.00;0.00;;;5.90;99.90;;;;;;6152311;23;20573;-69
2021/03/18 09:25:57;;;;;;;0.00;0.00;;;6.00;99.90;;;;;;6152225;23;20383;-70
2021/03/18 09:28:24;;;;;;;0.00;0.00;;;5.70;99.90;;;;;;6152483;23;20454;-70
2021/03/18 09:30:54;;;;;;;0.00;0.00;;;5.50;99.90;;;;;;6152242;23;20854;-71
2021/03/18 09:33:26;;;;;;;0.00;0.00;;;5.90;99.90;;;;;;6152066;23;20470;-70
2021/03/18 09:35:53;;;;;;;0.00;0.00;;;6.00;99.90;;;;;;6152076;23;20444;-71
2021/03/18 09:38:22;;;;;;;0.00;0.00;;;6.00;99.90;;;;;;6152682;23;20383;-69
2021/03/18 09:40:49;;;;;;;0.00;0.00;;;5.80;99.90;;;;;;6152390;23;20388;-71
2021/03/18 09:43:18;;;;;;;0.00;0.00;;;6.00;99.90;;;;;;6151752;23;20386;-70
2021/03/18 09:45:57;;;;;;;0.00;0.00;;;6.00;99.90;;;;;;6151699;23;20535;-70
2021/03/18 09:48:28;;;;;;;0.00;0.00;;;5.80;99.90;;;;;;6151896;23;20846;-70
2021/03/18 09:50:55;;;;;;;0.00;0.00;;;5.60;99.90;;;;;;6152432;23;20398;-67
2021/03/18 09:53:23;;;;;;;0.00;0.00;;;7.70;99.90;;;;;;6151118;23;20394;-67
2021/03/18 09:55:50;;;;;;;0.00;0.00;;;5.80;99.90;;;;;;6152310;23;20395;-67
2021/03/18 09:58:18;;;;;;;0.00;0.00;;;6.00;99.90;;;;;;6152124;23;20387;-66
2021/03/18 10:00:46;;;;;;;0.00;0.00;;;6.30;99.90;;;;;;6151517;23;20400;-68
2021/03/18 10:03:14;;;;;;;0.00;0.00;;;6.40;99.90;;;;;;6152146;23;20478;-66
2021/03/18 10:05:40;;;;;;;0.00;0.00;;;6.30;99.90;;;;;;6152295;23;20371;-66
2021/03/18 10:08:06;;;;;;;0.00;0.00;;;6.50;99.90;;;;;;6152888;23;20386;-66
2021/03/18 10:10:34;;;;;;;0.00;0.00;;;6.40;99.90;;;;;;6152497;23;20390;-64
2021/03/18 10:13:01;;;;;;;0.00;0.00;;;6.50;99.90;;;;;;6151455;23;20386;-63
2021/03/18 10:15:28;;;;;;;0.00;0.00;;;6.60;99.90;;;;;;6152381;23;20375;-64
2021/03/18 10:17:55;;;;;;;0.00;0.00;;;6.50;99.90;;;;;;6152323;23;20455;-63
2021/03/18 10:20:25;;;;;;;0.00;0.00;;;5.90;99.90;;;;;;6152478;23;20387;-64
2021/03/18 10:22:58;;;;;;;0.00;0.00;;;5.80;99.90;;;;;;6151458;23;20518;-67
2021/03/18 10:25:27;;;;;;;0.00;0.00;;;6.20;99.90;;;;;;6153868;23;20388;-68
2021/03/18 10:28:01;;;;;;;0.00;0.00;;;6.40;99.90;;;;;;6153317;23;20505;-68
2021/03/18 10:30:28;;;;;;;0.00;0.00;;;6.70;99.90;;;;;;6154183;23;20390;-68
2021/03/18 10:33:07;;;;;;;0.00;0.00;;;6.40;99.90;;;;;;6153408;23;20882;-68
2021/03/18 10:35:36;;;;;;;0.00;0.00;;;6.10;99.90;;;;;;6153457;23;20414;-67
2021/03/18 10:38:04;;;;;;;0.00;0.00;;;6.20;99.90;;;;;;6154378;23;20433;-63
2021/03/18 10:40:37;;;;;;;0.00;0.00;;;6.30;99.90;;;;;;6153682;23;21171;-65
2021/03/18 10:43:21;;;;;;;0.00;0.00;;;6.40;99.90;;;;;;6154002;23;20391;-64
2021/03/18 10:45:48;;;;;;;0.00;0.00;;;6.60;99.90;;;;;;6154451;23;20424;-64
2021/03/18 10:48:18;;;;;;;0.00;0.00;;;6.70;99.90;;;;;;6154665;23;20854;-64
2021/03/18 10:50:46;;;;;;;0.00;0.00;;;6.80;99.90;;;;;;6154819;23;20441;-64
2021/03/18 10:53:14;;;;;;;0.00;0.00;;;7.00;99.90;;;;;;6153235;23;20379;-64
2021/03/18 10:55:44;;;;;;;0.00;0.00;;;6.90;99.90;;;;;;6154398;23;20391;-67
2021/03/18 10:58:16;;;;;;;0.00;0.00;;;6.80;99.90;;;;;;6154143;23;20392;-63
2021/03/18 11:00:49;;;;;;;0.00;0.00;;;6.70;99.90;;;;;;6154155;23;20388;-66
2021/03/18 11:03:18;;;;;;;0.00;0.00;;;6.60;99.90;;;;;;6155311;23;20431;-68
2021/03/18 11:05:50;;;;;;;0.00;0.00;;;6.70;99.90;;;;;;6154286;23;20388;-66
2021/03/18 11:08:25;;;;;;;0.00;0.00;;;6.70;99.90;;;;;;6154222;23;20432;-67
2021/03/18 11:10:53;;;;;;;0.00;0.00;;;6.90;99.90;;;;;;6157791;23;20411;-67
2021/03/18 11:13:22;;;;;;;0.00;0.00;;;7.20;99.90;;;;;;6156739;23;20386;-69
2021/03/18 11:15:58;;;;;;;0.00;0.00;;;6.90;99.90;;;;;;6153878;23;20883;-68
2021/03/18 11:18:46;;;;;;;0.00;0.00;;;6.60;99.90;;;;;;6152456;23;20379;-68
2021/03/18 11:21:26;;;;;;;0.00;0.00;;;6.20;99.90;;;;;;6148579;23;20471;-68
2021/03/18 11:23:54;;;;;;;0.00;0.00;;;6.10;99.90;;;;;;6155099;23;20398;-68
2021/03/18 11:26:24;;;;;;;0.00;0.00;;;6.40;99.90;;;;;;6152351;23;20392;-68
2021/03/18 11:28:55;;;;;;;0.00;0.00;;;6.50;99.90;;;;;;6153440;23;20371;-66
2021/03/18 11:31:23;;;;;;;0.00;0.00;;;6.60;99.90;;;;;;6153302;23;20387;-69
2021/03/18 11:33:49;;;;;;;0.00;0.00;;;6.40;99.90;;;;;;6152726;23;20391;-64
2021/03/18 11:36:16;;;;;;;0.00;0.00;;;6.70;99.90;;;;;;6153680;23;20414;-64
2021/03/18 11:38:44;;;;;;;0.00;0.00;;;6.90;99.90;;;;;;6153952;23;20374;-64
2021/03/18 11:41:10;;;;;;;0.00;0.00;;;7.10;99.90;;;;;;6154456;23;20375;-67
2021/03/18 11:43:37;;;;;;;0.00;0.00;;;7.20;99.90;;;;;;6154446;23;20383;-62
2021/03/18 11:46:04;;;;;;;0.00;0.00;;;7.20;99.90;;;;;;6154098;23;20386;-65
2021/03/18 11:48:30;;;;;;;0.00;0.00;;;7.10;99.90;;;;;;6153416;23;20379;-69
2021/03/18 11:50:57;;;;;;;0.00;0.00;;;6.40;99.90;;;;;;6151846;23;20386;-66
2021/03/18 11:53:24;;;;;;;0.00;0.00;;;6.50;99.90;;;;;;6150599;23;20386;-66
2021/03/18 11:55:51;;;;;;;0.00;0.00;;;6.50;99.90;;;;;;6151943;23;20427;-65
2021/03/18 11:58:18;;;;;;;0.00;0.00;;;6.50;99.90;;;;;;6153047;23;20392;-66
2021/03/18 12:00:44;;;;;;;0.00;0.00;;;6.30;99.90;;;;;;6153367;23;20386;-66
2021/03/18 12:03:14;;;;;;;0.00;0.00;;;6.50;99.90;;;;;;6152770;23;20434;-66
2021/03/18 12:05:43;;;;;;;0.00;0.00;;;6.40;99.90;;;;;;6151563;23;20450;-67
2021/03/18 12:08:10;;;;;;;0.00;0.00;;;6.40;99.90;;;;;;6152478;23;20395;-67
2021/03/18 12:10:39;;;;;;;0.00;0.00;;;6.40;99.90;;;;;;6152413;23;20387;-67
2021/03/18 12:13:07;;;;;;;0.00;0.00;;;6.70;99.90;;;;;;6152540;23;20437;-67
2021/03/18 12:15:34;;;;;;;0.00;0.00;;;6.10;99.90;;;;;;6152145;23;20494;-66
2021/03/18 12:18:02;;;;;;;0.00;0.00;;;6.40;99.90;;;;;;6152626;23;20387;-67
2021/03/18 12:20:31;;;;;;;0.00;0.00;;;6.20;99.90;;;;;;6152128;23;20421;-66
2021/03/18 12:23:09;;;;;;;0.00;0.00;;;6.30;99.90;;;;;;6149998;23;20391;-67
2021/03/18 12:25:36;;;;;;;0.00;0.00;;;6.40;99.90;;;;;;6150208;23;20419;-65
2021/03/18 12:28:02;;;;;;;0.00;0.00;;;6.50;99.90;;;;;;6152051;23;20383;-61
2021/03/18 12:30:29;;;;;;;0.00;0.00;;;6.70;99.90;;;;;;6152980;23;20391;-62
2021/03/18 12:32:55;;;;;;;0.00;0.00;;;6.90;99.90;;;;;;6152630;23;20383;-62
2021/03/18 12:35:23;;;;;;;0.00;0.00;;;6.80;99.90;;;;;;6153455;23;20386;-61
2021/03/18 12:37:51;;;;;;;0.00;0.00;;;6.70;99.90;;;;;;6151748;23;20396;-61
2021/03/18 12:40:19;;;;;;;0.00;0.00;;;6.40;99.90;;;;;;6152903;23;20386;-62
2021/03/18 12:42:45;;;;;;;0.00;0.00;;;6.50;99.90;;;;;;6152390;23;20392;-62
2021/03/18 12:45:14;;;;;;;0.00;0.00;;;6.50;99.90;;;;;;6151979;23;20381;-65
2021/03/18 12:47:41;;;;;;;0.00;0.00;;;6.40;99.90;;;;;;6152331;23;20382;-67
2021/03/18 12:50:10;;;;;;;0.00;0.00;;;6.30;99.90;;;;;;6152743;23;20442;-69
2021/03/18 12:52:40;;;;;;;0.00;0.00;;;6.30;99.90;;;;;;6152313;23;20388;-69
2021/03/18 12:55:08;;;;;;;0.00;0.00;;;6.40;99.90;;;;;;6152589;23;20442;-67
2021/03/18 12:57:35;;;;;;;0.00;0.00;;;6.50;99.90;;;;;;6152884;23;20400;-69
2021/03/18 13:00:02;;;;;;;0.00;0.00;;;6.50;99.90;;;;;;6152795;23;20382;-69
2021/03/18 13:02:28;;;;;;;0.00;0.00;;;6.60;99.90;;;;;;6152834;23;20382;-66
2021/03/18 13:04:55;;;;;;;0.00;0.00;;;6.60;99.90;;;;;;6152072;23;20386;-66
2021/03/18 13:07:21;;;;;;;0.00;0.00;;;6.70;99.90;;;;;;6151942;23;20398;-68
2021/03/18 13:09:47;;;;;;;0.00;0.00;;;6.60;99.90;;;;;;6151185;23;20751;-68